Time;durP1;ratioP1;P1;durP2;ratioP2;P2;SDS_P1;SDS_P2;PMS_P1;PMS_P2;Temp;Humidity;BMP_temperature;BMP_pressure;BME280_temperature;BME280_humidity;BME280_pressure;Samples;Min_cycle;Max_cycle;Signal;HPM_P1;HPM_P2
2022/08/21 00:00:50;;;;;;;8.73;3.60;;;;;;;;;;5066285;28;20487;-63
2022/08/21 00:03:18;;;;;;;10.68;3.75;;;;;;;;;;5061697;28;20044;-63
2022/08/21 00:05:47;;;;;;;14.43;4.00;;;;;;;;;;5068693;28;20553;-63
2022/08/21 00:08:15;;;;;;;13.30;3.88;;;;;;;;;;5062327;28;20049;-63
2022/08/21 00:10:43;;;;;;;12.50;4.25;;;;;;;;;;5066866;28;20645;-64
2022/08/21 00:13:10;;;;;;;9.90;3.83;;;;;;;;;;5062452;28;20056;-64
2022/08/21 00:15:39;;;;;;;16.90;4.10;;;;;;;;;;5061335;28;20102;-65
2022/08/21 00:18:07;;;;;;;9.23;3.70;;;;;;;;;;5066906;28;20055;-63
2022/08/21 00:20:34;;;;;;;14.18;4.88;;;;;;;;;;5059077;28;20048;-63
2022/08/21 00:23:02;;;;;;;9.88;3.88;;;;;;;;;;5064940;28;20048;-64
2022/08/21 00:25:30;;;;;;;13.27;4.22;;;;;;;;;;5062417;28;20055;-63
2022/08/21 00:27:58;;;;;;;8.85;3.70;;;;;;;;;;5067981;28;20102;-63
2022/08/21 00:30:26;;;;;;;12.43;4.00;;;;;;;;;;5066512;28;20055;-64
2022/08/21 00:32:54;;;;;;;15.25;4.63;;;;;;;;;;5059689;28;20060;-63
2022/08/21 00:35:22;;;;;;;13.68;4.38;;;;;;;;;;5062327;28;20099;-65
2022/08/21 00:37:50;;;;;;;12.85;4.15;;;;;;;;;;5063400;28;20653;-63
2022/08/21 00:40:18;;;;;;;13.35;4.03;;;;;;;;;;5065172;28;20056;-64
2022/08/21 00:42:47;;;;;;;13.68;4.50;;;;;;;;;;5064739;28;20118;-63
2022/08/21 00:45:15;;;;;;;17.20;4.13;;;;;;;;;;5062598;28;20629;-64
2022/08/21 00:47:42;;;;;;;12.07;4.03;;;;;;;;;;5070687;28;20487;-63
2022/08/21 00:50:10;;;;;;;9.80;4.20;;;;;;;;;;5062716;28;20052;-64
2022/08/21 00:52:38;;;;;;;12.43;4.05;;;;;;;;;;5068945;28;20113;-63
2022/08/21 00:55:07;;;;;;;8.18;3.85;;;;;;;;;;5065594;28;20172;-63
2022/08/21 00:57:37;;;;;;;10.05;4.05;;;;;;;;;;5066235;28;20055;-63
2022/08/21 01:00:09;;;;;;;16.15;4.20;;;;;;;;;;5066692;28;20049;-63
2022/08/21 01:02:37;;;;;;;17.23;4.35;;;;;;;;;;5064590;28;20052;-64
2022/08/21 01:05:05;;;;;;;10.57;3.88;;;;;;;;;;5057499;28;20123;-63
2022/08/21 01:07:32;;;;;;;9.93;3.90;;;;;;;;;;5061835;28;20106;-65
2022/08/21 01:09:59;;;;;;;9.23;3.92;;;;;;;;;;5061912;28;20053;-62
2022/08/21 01:12:27;;;;;;;12.00;3.95;;;;;;;;;;5061412;28;20068;-63
2022/08/21 01:14:54;;;;;;;8.68;4.13;;;;;;;;;;5060921;28;20057;-63
2022/08/21 01:17:23;;;;;;;13.05;4.50;;;;;;;;;;5058635;28;20053;-63
2022/08/21 01:19:50;;;;;;;11.63;4.18;;;;;;;;;;5057485;28;20457;-63
2022/08/21 01:22:19;;;;;;;11.07;4.22;;;;;;;;;;5065339;28;20527;-63
2022/08/21 01:24:46;;;;;;;14.55;4.55;;;;;;;;;;5059679;28;20048;-63
2022/08/21 01:27:13;;;;;;;10.98;4.18;;;;;;;;;;5062719;28;20495;-63
2022/08/21 01:29:43;;;;;;;10.55;4.07;;;;;;;;;;5066399;28;20053;-63
2022/08/21 01:32:13;;;;;;;10.20;4.20;;;;;;;;;;5061717;28;20052;-63
2022/08/21 01:34:42;;;;;;;12.23;4.90;;;;;;;;;;5062370;28;20117;-63
2022/08/21 01:37:09;;;;;;;12.80;4.20;;;;;;;;;;5063294;28;20056;-63
2022/08/21 01:39:38;;;;;;;11.50;4.13;;;;;;;;;;5068162;28;20122;-63
2022/08/21 01:42:05;;;;;;;12.95;5.03;;;;;;;;;;5060219;28;20052;-63
2022/08/21 01:44:33;;;;;;;9.63;4.05;;;;;;;;;;5062376;28;20070;-63
2022/08/21 01:47:01;;;;;;;15.02;4.20;;;;;;;;;;5064760;28;20056;-64
2022/08/21 01:49:29;;;;;;;15.57;4.25;;;;;;;;;;5064347;28;20351;-65
2022/08/21 01:51:56;;;;;;;13.05;4.30;;;;;;;;;;5063977;28;20056;-64
2022/08/21 01:54:23;;;;;;;9.85;3.67;;;;;;;;;;5065401;28;20102;-63
2022/08/21 01:56:53;;;;;;;14.07;4.45;;;;;;;;;;5064189;28;20105;-63
2022/08/21 01:59:21;;;;;;;13.77;4.70;;;;;;;;;;5071528;28;20064;-65
2022/08/21 02:01:48;;;;;;;11.18;4.00;;;;;;;;;;5064401;28;20048;-63
2022/08/21 02:04:16;;;;;;;16.63;4.70;;;;;;;;;;5062855;28;20051;-65
2022/08/21 02:06:44;;;;;;;10.75;4.22;;;;;;;;;;5064886;28;20584;-65
2022/08/21 02:09:12;;;;;;;12.35;4.25;;;;;;;;;;5063905;28;20055;-64
2022/08/21 02:11:40;;;;;;;15.90;4.72;;;;;;;;;;5065058;28;20094;-64
2022/08/21 02:14:09;;;;;;;15.25;5.20;;;;;;;;;;5062503;28;20048;-63
2022/08/21 02:16:36;;;;;;;11.88;4.05;;;;;;;;;;5060021;28;20063;-64
2022/08/21 02:19:03;;;;;;;13.20;4.38;;;;;;;;;;5058825;28;20105;-63
2022/08/21 02:21:31;;;;;;;14.23;4.80;;;;;;;;;;5058258;28;20045;-64
2022/08/21 02:23:58;;;;;;;9.55;4.25;;;;;;;;;;5062057;28;20442;-64
2022/08/21 02:26:25;;;;;;;8.32;4.25;;;;;;;;;;5059448;28;20052;-63
2022/08/21 02:28:52;;;;;;;14.63;5.30;;;;;;;;;;5059385;28;20053;-64
2022/08/21 02:31:21;;;;;;;17.33;5.65;;;;;;;;;;5062314;28;20137;-63
2022/08/21 02:33:48;;;;;;;12.60;4.43;;;;;;;;;;5056571;28;20052;-63
2022/08/21 02:36:16;;;;;;;12.05;4.90;;;;;;;;;;5059581;28;20048;-63
2022/08/21 02:38:43;;;;;;;18.50;4.82;;;;;;;;;;5059057;28;20499;-64
2022/08/21 02:41:11;;;;;;;13.43;4.93;;;;;;;;;;5060821;28;20069;-63
2022/08/21 02:43:39;;;;;;;8.70;4.25;;;;;;;;;;5057935;28;20135;-64
2022/08/21 02:46:07;;;;;;;13.38;4.57;;;;;;;;;;5056963;28;20052;-64
2022/08/21 02:48:36;;;;;;;10.38;4.60;;;;;;;;;;5059989;28;20114;-63
2022/08/21 02:51:04;;;;;;;11.15;4.65;;;;;;;;;;5058040;28;20132;-63
2022/08/21 02:53:32;;;;;;;10.48;5.05;;;;;;;;;;5061502;28;20053;-63
2022/08/21 02:56:00;;;;;;;11.05;4.68;;;;;;;;;;5065802;28;20140;-63
2022/08/21 02:58:30;;;;;;;14.48;4.82;;;;;;;;;;5067365;28;20056;-63
2022/08/21 03:00:58;;;;;;;14.48;5.15;;;;;;;;;;5062783;28;20397;-64
2022/08/21 03:03:25;;;;;;;12.02;5.18;;;;;;;;;;5061445;28;20060;-64
2022/08/21 03:05:54;;;;;;;10.82;4.88;;;;;;;;;;5069576;28;20044;-63
2022/08/21 03:08:21;;;;;;;15.88;4.97;;;;;;;;;;5068367;28;20040;-64
2022/08/21 03:10:50;;;;;;;12.00;4.82;;;;;;;;;;5067963;28;20535;-64
2022/08/21 03:13:19;;;;;;;11.98;4.55;;;;;;;;;;5066159;28;20052;-63
2022/08/21 03:15:46;;;;;;;15.13;5.25;;;;;;;;;;5063448;28;20184;-63
2022/08/21 03:18:13;;;;;;;11.52;4.90;;;;;;;;;;5065586;28;20554;-64
2022/08/21 03:20:41;;;;;;;12.98;5.20;;;;;;;;;;5059762;28;20115;-64
2022/08/21 03:23:10;;;;;;;14.90;5.28;;;;;;;;;;5057791;28;20060;-63
2022/08/21 03:25:37;;;;;;;15.40;5.05;;;;;;;;;;5059891;28;20053;-63
2022/08/21 03:28:06;;;;;;;15.27;5.88;;;;;;;;;;5064303;28;20048;-63
2022/08/21 03:30:34;;;;;;;12.88;5.00;;;;;;;;;;5066562;28;20059;-63
2022/08/21 03:33:01;;;;;;;11.95;4.70;;;;;;;;;;5074078;28;20071;-65
2022/08/21 03:35:29;;;;;;;13.85;5.35;;;;;;;;;;5063348;28;20109;-63
2022/08/21 03:37:56;;;;;;;17.00;5.55;;;;;;;;;;5064673;28;20048;-64
2022/08/21 03:40:25;;;;;;;10.30;5.35;;;;;;;;;;5068470;28;20052;-63
2022/08/21 03:42:52;;;;;;;17.58;5.75;;;;;;;;;;5065933;28;20560;-64
2022/08/21 03:45:20;;;;;;;16.65;5.57;;;;;;;;;;5068133;28;20045;-63
2022/08/21 03:47:55;;;;;;;12.82;5.43;;;;;;;;;;5061427;28;20060;-63
2022/08/21 03:50:22;;;;;;;14.15;5.65;;;;;;;;;;5072124;28;20136;-64
2022/08/21 03:52:50;;;;;;;12.80;5.57;;;;;;;;;;5063865;28;20447;-64
2022/08/21 03:55:17;;;;;;;13.73;6.43;;;;;;;;;;5064678;28;20056;-63
2022/08/21 03:57:46;;;;;;;15.98;6.05;;;;;;;;;;5075197;28;20048;-63
2022/08/21 04:00:14;;;;;;;12.75;5.90;;;;;;;;;;5072861;28;20098;-63
2022/08/21 04:02:41;;;;;;;15.07;6.57;;;;;;;;;;5061844;28;20048;-62
2022/08/21 04:05:09;;;;;;;10.50;5.78;;;;;;;;;;5068617;28;20044;-64
2022/08/21 04:07:36;;;;;;;14.10;6.43;;;;;;;;;;5063685;28;20049;-63
2022/08/21 04:10:04;;;;;;;17.48;6.57;;;;;;;;;;5062698;28;20110;-64
2022/08/21 04:12:31;;;;;;;12.73;6.03;;;;;;;;;;5062673;28;20110;-63
2022/08/21 04:15:01;;;;;;;15.85;5.90;;;;;;;;;;5066832;28;20195;-63
2022/08/21 04:17:28;;;;;;;15.70;5.78;;;;;;;;;;5067949;28;20041;-64
2022/08/21 04:19:56;;;;;;;17.48;5.35;;;;;;;;;;5060118;28;20056;-62
2022/08/21 04:22:23;;;;;;;13.95;5.70;;;;;;;;;;5062937;28;20495;-63
2022/08/21 04:24:50;;;;;;;19.08;6.10;;;;;;;;;;5068209;28;20507;-64
2022/08/21 04:27:17;;;;;;;18.20;6.10;;;;;;;;;;5064015;28;20048;-63
2022/08/21 04:29:45;;;;;;;21.77;6.25;;;;;;;;;;5065862;28;20048;-63
2022/08/21 04:32:13;;;;;;;15.85;5.45;;;;;;;;;;5068450;28;20690;-63
2022/08/21 04:34:43;;;;;;;18.85;5.57;;;;;;;;;;5062083;28;20090;-63
2022/08/21 04:37:11;;;;;;;18.08;6.60;;;;;;;;;;5061615;28;20057;-63
2022/08/21 04:39:38;;;;;;;14.55;5.13;;;;;;;;;;5065575;28;20453;-63
2022/08/21 04:42:06;;;;;;;17.65;5.10;;;;;;;;;;5058563;28;20120;-64
2022/08/21 04:44:33;;;;;;;15.35;5.35;;;;;;;;;;5063701;28;20122;-62
2022/08/21 04:47:00;;;;;;;22.58;5.82;;;;;;;;;;5068299;28;20052;-63
2022/08/21 04:49:30;;;;;;;12.23;5.35;;;;;;;;;;5061717;28;20053;-64
2022/08/21 04:51:58;;;;;;;16.10;5.70;;;;;;;;;;5066402;28;20742;-63
2022/08/21 04:54:25;;;;;;;19.98;5.70;;;;;;;;;;5060778;28;20041;-63
2022/08/21 04:56:55;;;;;;;19.02;5.40;;;;;;;;;;5066812;28;20106;-63
2022/08/21 04:59:25;;;;;;;14.40;5.00;;;;;;;;;;5063331;28;20415;-62
2022/08/21 05:01:53;;;;;;;19.42;5.22;;;;;;;;;;5064748;28;20055;-65
2022/08/21 05:04:24;;;;;;;14.70;5.40;;;;;;;;;;5071333;28;20101;-63
2022/08/21 05:06:54;;;;;;;16.92;5.05;;;;;;;;;;5063968;28;20064;-63
2022/08/21 05:09:22;;;;;;;11.05;4.78;;;;;;;;;;5062403;28;20118;-63
2022/08/21 05:11:49;;;;;;;16.13;5.40;;;;;;;;;;5063199;28;20094;-63
2022/08/21 05:14:17;;;;;;;14.85;4.75;;;;;;;;;;5065299;28;20049;-63
2022/08/21 05:16:44;;;;;;;14.35;4.45;;;;;;;;;;5063738;28;20056;-64
2022/08/21 05:19:11;;;;;;;14.30;4.57;;;;;;;;;;5065657;28;20056;-63
2022/08/21 05:21:39;;;;;;;17.17;5.25;;;;;;;;;;5058937;28;20048;-64
2022/08/21 05:24:08;;;;;;;16.80;5.20;;;;;;;;;;5064784;28;20098;-63
2022/08/21 05:26:36;;;;;;;15.45;5.13;;;;;;;;;;5058753;28;20044;-62
2022/08/21 05:29:03;;;;;;;14.68;5.03;;;;;;;;;;5065718;28;20184;-63
2022/08/21 05:31:31;;;;;;;19.25;5.18;;;;;;;;;;5069391;28;20052;-63
2022/08/21 05:33:58;;;;;;;14.18;4.47;;;;;;;;;;5061397;28;20049;-64
2022/08/21 05:36:25;;;;;;;13.93;4.97;;;;;;;;;;5064863;28;20044;-63
2022/08/21 05:38:53;;;;;;;17.70;4.93;;;;;;;;;;5073674;28;20056;-64
2022/08/21 05:41:22;;;;;;;13.35;4.35;;;;;;;;;;5063709;28;20056;-63
2022/08/21 05:43:49;;;;;;;20.45;5.25;;;;;;;;;;5079372;28;20533;-63
2022/08/21 05:46:17;;;;;;;20.30;4.85;;;;;;;;;;5064204;28;20053;-63
2022/08/21 05:48:44;;;;;;;19.80;4.95;;;;;;;;;;5057131;28;20060;-63
2022/08/21 05:51:12;;;;;;;12.95;5.03;;;;;;;;;;5063815;28;20204;-63
2022/08/21 05:53:41;;;;;;;18.80;4.68;;;;;;;;;;5063819;28;20045;-64
2022/08/21 05:56:09;;;;;;;15.00;4.80;;;;;;;;;;5061565;28;20055;-63
2022/08/21 05:58:38;;;;;;;13.43;4.18;;;;;;;;;;5060617;28;20129;-64
2022/08/21 06:01:05;;;;;;;21.67;6.03;;;;;;;;;;5057129;28;20094;-62
2022/08/21 06:03:33;;;;;;;15.70;4.43;;;;;;;;;;5065479;28;20178;-64
2022/08/21 06:06:01;;;;;;;14.00;4.10;;;;;;;;;;5062565;28;20499;-64
2022/08/21 06:08:28;;;;;;;18.00;4.25;;;;;;;;;;5059178;28;20055;-63
2022/08/21 06:10:56;;;;;;;18.25;4.40;;;;;;;;;;5064760;28;20068;-63
2022/08/21 06:13:24;;;;;;;14.38;4.38;;;;;;;;;;5060852;28;20049;-63
2022/08/21 06:16:01;;;;;;;16.70;4.63;;;;;;;;;;5065283;28;20044;-64
2022/08/21 06:18:29;;;;;;;11.63;4.10;;;;;;;;;;5056286;28;20503;-63
2022/08/21 06:20:56;;;;;;;20.08;4.75;;;;;;;;;;5059283;28;20055;-63
2022/08/21 06:23:23;;;;;;;16.58;4.68;;;;;;;;;;5061840;28;20040;-63
2022/08/21 06:25:50;;;;;;;14.68;4.68;;;;;;;;;;5061755;28;20579;-64
2022/08/21 06:28:17;;;;;;;14.57;4.97;;;;;;;;;;5050943;28;20565;-63
2022/08/21 06:30:44;;;;;;;12.88;4.00;;;;;;;;;;5063443;28;20056;-63
2022/08/21 06:33:13;;;;;;;13.30;4.43;;;;;;;;;;5063588;28;20098;-63
2022/08/21 06:35:40;;;;;;;12.40;4.50;;;;;;;;;;5059707;28;20049;-64
2022/08/21 06:38:08;;;;;;;14.95;4.30;;;;;;;;;;5065857;28;20036;-64
2022/08/21 06:40:35;;;;;;;16.10;5.05;;;;;;;;;;5067800;28;20049;-63
2022/08/21 06:43:07;;;;;;;18.77;3.97;;;;;;;;;;5062115;28;20286;-64
2022/08/21 06:45:34;;;;;;;17.90;4.03;;;;;;;;;;5060475;28;20545;-64
2022/08/21 06:48:01;;;;;;;18.52;4.28;;;;;;;;;;5061243;28;20059;-64
2022/08/21 06:50:30;;;;;;;19.38;4.47;;;;;;;;;;5061611;28;20105;-64
2022/08/21 06:53:01;;;;;;;14.80;4.50;;;;;;;;;;5057908;28;20383;-65
2022/08/21 06:55:28;;;;;;;24.42;4.72;;;;;;;;;;5058050;28;20053;-64
2022/08/21 06:57:56;;;;;;;15.57;3.55;;;;;;;;;;5057679;28;20048;-63
2022/08/21 07:00:23;;;;;;;15.40;3.50;;;;;;;;;;5063708;28;20530;-65
2022/08/21 07:02:50;;;;;;;15.02;3.65;;;;;;;;;;5057901;28;20064;-64
2022/08/21 07:05:17;;;;;;;17.60;3.00;;;;;;;;;;5061627;28;20068;-64
2022/08/21 07:07:46;;;;;;;14.13;3.22;;;;;;;;;;5055551;28;20103;-63
2022/08/21 07:10:14;;;;;;;15.85;3.92;;;;;;;;;;5052590;28;20133;-63
2022/08/21 07:12:41;;;;;;;16.58;3.75;;;;;;;;;;5049519;28;20057;-64
2022/08/21 07:15:09;;;;;;;17.10;3.50;;;;;;;;;;5060227;28;20045;-65
2022/08/21 07:17:36;;;;;;;10.70;3.20;;;;;;;;;;5061460;28;20056;-63
2022/08/21 07:20:04;;;;;;;18.90;3.92;;;;;;;;;;5060361;28;20412;-63
2022/08/21 07:22:31;;;;;;;13.73;3.08;;;;;;;;;;5052160;28;20123;-64
2022/08/21 07:25:00;;;;;;;17.92;4.22;;;;;;;;;;5064716;28;20044;-64
2022/08/21 07:27:27;;;;;;;22.30;3.85;;;;;;;;;;5063893;28;20079;-63
2022/08/21 07:29:54;;;;;;;16.55;3.10;;;;;;;;;;5057787;28;20526;-63
2022/08/21 07:32:21;;;;;;;17.90;3.05;;;;;;;;;;5067983;28;20453;-63
2022/08/21 07:34:48;;;;;;;17.48;4.70;;;;;;;;;;5063554;28;20056;-64
2022/08/21 07:37:16;;;;;;;11.88;3.30;;;;;;;;;;5065908;28;20044;-63
2022/08/21 07:39:43;;;;;;;19.98;3.47;;;;;;;;;;5062137;28;20052;-63
2022/08/21 07:42:12;;;;;;;19.45;3.72;;;;;;;;;;5061919;28;20061;-63
2022/08/21 07:44:39;;;;;;;15.30;3.20;;;;;;;;;;5061399;28;20726;-63
2022/08/21 07:47:06;;;;;;;13.85;3.00;;;;;;;;;;5061702;28;20113;-63
2022/08/21 07:49:34;;;;;;;16.30;3.10;;;;;;;;;;5055611;28;20056;-63
2022/08/21 07:52:01;;;;;;;13.82;3.08;;;;;;;;;;5056355;28;20045;-63
2022/08/21 07:54:28;;;;;;;15.77;3.67;;;;;;;;;;5054798;28;20641;-64
2022/08/21 07:56:55;;;;;;;13.25;2.80;;;;;;;;;;5062136;28;20048;-63
2022/08/21 07:59:24;;;;;;;17.42;3.67;;;;;;;;;;5061700;28;20041;-66
2022/08/21 08:01:51;;;;;;;18.77;4.05;;;;;;;;;;5061354;28;20060;-63
2022/08/21 08:04:18;;;;;;;16.33;4.50;;;;;;;;;;5054052;28;20041;-63
2022/08/21 08:06:45;;;;;;;19.75;3.78;;;;;;;;;;5055563;28;20102;-65
2022/08/21 08:09:13;;;;;;;17.85;3.17;;;;;;;;;;5061581;28;20044;-64
2022/08/21 08:11:43;;;;;;;13.48;2.65;;;;;;;;;;5063727;28;20055;-64
2022/08/21 08:14:10;;;;;;;16.73;3.28;;;;;;;;;;5060634;28;20076;-64
2022/08/21 08:16:39;;;;;;;13.27;3.33;;;;;;;;;;5064298;28;20075;-64
2022/08/21 08:19:06;;;;;;;16.15;3.10;;;;;;;;;;5062700;28;20056;-63
2022/08/21 08:21:34;;;;;;;10.80;2.83;;;;;;;;;;5066276;28;20252;-64
2022/08/21 08:24:01;;;;;;;15.27;3.17;;;;;;;;;;5061752;28;20045;-64
2022/08/21 08:26:28;;;;;;;14.65;3.00;;;;;;;;;;5062478;28;20110;-63
2022/08/21 08:28:56;;;;;;;16.23;2.95;;;;;;;;;;5077786;28;20096;-63
2022/08/21 08:31:23;;;;;;;15.38;3.17;;;;;;;;;;5068448;28;20071;-63
2022/08/21 08:33:52;;;;;;;13.65;3.45;;;;;;;;;;5068478;28;20095;-64
2022/08/21 08:36:19;;;;;;;9.95;3.08;;;;;;;;;;5064515;28;20063;-63
2022/08/21 08:38:47;;;;;;;12.00;3.03;;;;;;;;;;5068229;28;20130;-62
2022/08/21 08:41:16;;;;;;;17.48;3.35;;;;;;;;;;5065347;28;20064;-64
2022/08/21 08:43:45;;;;;;;11.68;2.88;;;;;;;;;;5064429;28;20055;-63
2022/08/21 08:46:15;;;;;;;18.02;3.25;;;;;;;;;;5065226;28;20449;-63
2022/08/21 08:48:46;;;;;;;14.98;2.78;;;;;;;;;;5061437;28;20044;-63
2022/08/21 08:51:18;;;;;;;18.60;3.10;;;;;;;;;;5065212;28;20057;-63
2022/08/21 08:53:48;;;;;;;15.57;2.40;;;;;;;;;;5059981;28;20045;-64
2022/08/21 08:56:16;;;;;;;16.10;2.90;;;;;;;;;;5059091;28;20055;-64
2022/08/21 08:58:46;;;;;;;11.88;2.60;;;;;;;;;;5061292;28;20056;-62
2022/08/21 09:01:16;;;;;;;14.73;2.25;;;;;;;;;;5057378;28;20041;-66
2022/08/21 09:03:44;;;;;;;11.27;2.75;;;;;;;;;;5056705;28;20330;-63
2022/08/21 09:06:18;;;;;;;13.60;2.83;;;;;;;;;;5060565;28;20602;-64
2022/08/21 09:08:59;;;;;;;10.30;2.40;;;;;;;;;;5062071;28;20063;-63
2022/08/21 09:11:30;;;;;;;10.27;2.53;;;;;;;;;;5060062;28;20491;-64
2022/08/21 09:14:07;;;;;;;11.18;2.20;;;;;;;;;;5056691;28;20056;-63
2022/08/21 09:16:40;;;;;;;9.95;2.22;;;;;;;;;;5058118;28;20076;-63
2022/08/21 09:19:13;;;;;;;12.03;2.40;;;;;;;;;;5059678;28;20693;-64
2022/08/21 09:21:43;;;;;;;13.73;2.10;;;;;;;;;;5061419;28;20101;-64
2022/08/21 09:24:20;;;;;;;21.00;2.90;;;;;;;;;;5051328;28;20675;-63
2022/08/21 09:26:51;;;;;;;13.73;2.53;;;;;;;;;;5060012;28;20045;-64
2022/08/21 09:29:21;;;;;;;12.15;2.50;;;;;;;;;;5063636;28;20840;-62
2022/08/21 09:31:48;;;;;;;13.95;2.15;;;;;;;;;;5062436;28;20422;-64
2022/08/21 09:34:25;;;;;;;8.68;2.00;;;;;;;;;;5059761;28;20052;-65
2022/08/21 09:36:52;;;;;;;10.88;2.72;;;;;;;;;;5060366;28;20101;-64
2022/08/21 09:39:25;;;;;;;10.20;2.38;;;;;;;;;;5064450;28;20060;-63
2022/08/21 09:41:57;;;;;;;10.75;2.38;;;;;;;;;;5061446;28;20834;-63
2022/08/21 09:44:27;;;;;;;7.85;2.10;;;;;;;;;;5063883;28;20052;-63
2022/08/21 09:46:54;;;;;;;8.02;2.55;;;;;;;;;;5071137;28;20049;-63
2022/08/21 09:49:28;;;;;;;8.23;2.20;;;;;;;;;;5061959;28;20442;-63
2022/08/21 09:51:56;;;;;;;7.88;1.90;;;;;;;;;;5061144;28;20094;-62
2022/08/21 09:54:27;;;;;;;11.38;1.92;;;;;;;;;;5057415;28;20040;-63
2022/08/21 09:59:41;;;;;;;6.18;2.28;;;;;;;;;;5056671;28;20055;-63
2022/08/21 10:02:23;;;;;;;8.88;2.13;;;;;;;;;;5052077;28;20060;-63
2022/08/21 10:04:51;;;;;;;9.80;2.28;;;;;;;;;;5063465;28;20766;-63
2022/08/21 10:07:21;;;;;;;10.48;2.40;;;;;;;;;;5063365;28;20132;-63
2022/08/21 10:09:59;;;;;;;10.45;2.25;;;;;;;;;;5060374;28;20037;-64
2022/08/21 10:12:29;;;;;;;10.75;2.00;;;;;;;;;;5054828;28;20110;-63
2022/08/21 10:15:01;;;;;;;6.22;1.70;;;;;;;;;;5060619;28;20102;-64
2022/08/21 10:17:33;;;;;;;9.02;1.70;;;;;;;;;;5075264;28;20037;-63
2022/08/21 10:20:04;;;;;;;5.68;1.23;;;;;;;;;;5058023;28;20053;-64
2022/08/21 10:22:36;;;;;;;5.45;1.63;;;;;;;;;;5058332;28;20052;-64
2022/08/21 10:25:10;;;;;;;5.22;1.58;;;;;;;;;;5062000;28;20051;-63
2022/08/21 10:27:43;;;;;;;5.85;1.40;;;;;;;;;;5057692;28;20395;-64
2022/08/21 10:30:13;;;;;;;5.00;1.67;;;;;;;;;;5067030;28;20050;-65
2022/08/21 10:32:48;;;;;;;3.70;1.40;;;;;;;;;;5063625;28;20056;-63
2022/08/21 10:35:19;;;;;;;5.50;1.35;;;;;;;;;;5061988;28;20538;-64
2022/08/21 10:37:58;;;;;;;4.00;1.20;;;;;;;;;;5061201;28;20060;-63
2022/08/21 10:40:28;;;;;;;8.73;1.95;;;;;;;;;;5060601;28;20700;-63
2022/08/21 10:43:03;;;;;;;8.80;1.75;;;;;;;;;;5066773;28;20061;-63
2022/08/21 10:45:39;;;;;;;6.80;1.58;;;;;;;;;;5062914;28;20150;-64
2022/08/21 10:48:08;;;;;;;8.00;1.73;;;;;;;;;;5059417;28;20102;-65
2022/08/21 10:50:38;;;;;;;5.88;1.60;;;;;;;;;;5062029;28;20505;-63
2022/08/21 10:53:23;;;;;;;6.45;1.95;;;;;;;;;;5060263;28;20056;-63
2022/08/21 10:55:56;;;;;;;6.80;1.65;;;;;;;;;;5057852;28;20044;-63
2022/08/21 10:58:27;;;;;;;7.10;1.85;;;;;;;;;;5062331;28;20079;-63
2022/08/21 11:00:56;;;;;;;10.68;2.90;;;;;;;;;;5057584;28;20049;-64
2022/08/21 11:03:25;;;;;;;7.75;1.77;;;;;;;;;;5065262;28;20040;-63
2022/08/21 11:05:54;;;;;;;8.55;1.67;;;;;;;;;;5061082;28;20748;-64
2022/08/21 11:08:24;;;;;;;6.80;1.80;;;;;;;;;;5060522;28;20048;-64
2022/08/21 11:10:53;;;;;;;6.88;2.10;;;;;;;;;;5062327;28;20110;-64
2022/08/21 11:13:26;;;;;;;6.53;1.70;;;;;;;;;;5064690;28;20125;-65
2022/08/21 11:15:56;;;;;;;10.07;2.17;;;;;;;;;;5064802;28;20049;-65
2022/08/21 11:18:25;;;;;;;8.38;1.63;;;;;;;;;;5063346;28;20052;-64
2022/08/21 11:20:56;;;;;;;13.20;2.08;;;;;;;;;;5068113;28;20064;-64
2022/08/21 11:23:24;;;;;;;6.68;1.77;;;;;;;;;;5059487;28;20052;-65
2022/08/21 11:25:54;;;;;;;7.22;1.80;;;;;;;;;;5060998;28;20131;-63
2022/08/21 11:28:25;;;;;;;7.78;2.00;;;;;;;;;;5063902;28;20048;-65
2022/08/21 11:30:59;;;;;;;7.10;1.75;;;;;;;;;;5060990;28;20049;-64
2022/08/21 11:33:32;;;;;;;9.35;2.08;;;;;;;;;;5065830;28;20114;-64
2022/08/21 11:36:03;;;;;;;5.95;1.70;;;;;;;;;;5061634;28;20048;-64
2022/08/21 11:38:35;;;;;;;5.25;1.98;;;;;;;;;;5060274;28;20106;-65
2022/08/21 11:41:11;;;;;;;8.07;1.67;;;;;;;;;;5066082;28;20088;-65
2022/08/21 11:43:42;;;;;;;5.63;1.67;;;;;;;;;;5067229;28;20391;-63
2022/08/21 11:46:25;;;;;;;7.25;1.80;;;;;;;;;;5062362;28;20568;-64
2022/08/21 11:49:00;;;;;;;7.40;2.00;;;;;;;;;;5061066;28;20048;-64
2022/08/21 11:51:29;;;;;;;6.70;1.98;;;;;;;;;;5064551;28;20053;-64
2022/08/21 11:54:02;;;;;;;9.73;2.10;;;;;;;;;;5060435;28;20494;-64
2022/08/21 11:56:32;;;;;;;12.57;2.25;;;;;;;;;;5062543;28;20462;-64
2022/08/21 11:59:03;;;;;;;6.45;1.88;;;;;;;;;;5060520;28;20098;-64
2022/08/21 12:01:34;;;;;;;5.72;1.52;;;;;;;;;;5064302;28;20052;-65
2022/08/21 12:04:03;;;;;;;9.68;1.80;;;;;;;;;;5067472;28;20094;-65
2022/08/21 12:06:32;;;;;;;7.68;2.03;;;;;;;;;;5070932;28;20052;-64
2022/08/21 12:09:00;;;;;;;6.90;2.03;;;;;;;;;;5071283;28;20040;-64
2022/08/21 12:11:28;;;;;;;6.47;1.90;;;;;;;;;;5066019;28;20056;-65
2022/08/21 12:13:56;;;;;;;6.22;1.70;;;;;;;;;;5065214;28;20063;-66
2022/08/21 12:16:32;;;;;;;8.40;1.67;;;;;;;;;;5064760;28;20051;-64
2022/08/21 12:19:06;;;;;;;6.43;1.85;;;;;;;;;;5061596;28;20057;-64
2022/08/21 12:21:33;;;;;;;4.55;1.80;;;;;;;;;;5063056;28;20044;-64
2022/08/21 12:24:02;;;;;;;7.95;1.70;;;;;;;;;;5065875;28;20063;-64
2022/08/21 12:26:30;;;;;;;7.10;2.00;;;;;;;;;;5062617;28;20044;-64
2022/08/21 12:29:22;;;;;;;7.25;2.10;;;;;;;;;;5064065;28;20320;-63
2022/08/21 12:31:56;;;;;;;5.80;1.83;;;;;;;;;;5045475;28;20088;-64
2022/08/21 12:34:24;;;;;;;4.38;1.55;;;;;;;;;;5060550;28;20454;-64
2022/08/21 12:36:55;;;;;;;8.75;2.17;;;;;;;;;;5063027;28;20048;-65
2022/08/21 12:39:25;;;;;;;9.35;2.05;;;;;;;;;;5058388;28;20544;-65
2022/08/21 12:41:54;;;;;;;8.55;1.52;;;;;;;;;;5066889;28;20607;-65
2022/08/21 12:44:24;;;;;;;7.03;2.22;;;;;;;;;;5060019;28;20094;-64
2022/08/21 12:46:52;;;;;;;6.72;1.88;;;;;;;;;;5065810;28;20129;-64
2022/08/21 12:49:25;;;;;;;6.80;1.90;;;;;;;;;;5061473;28;21309;-65
2022/08/21 12:52:02;;;;;;;7.00;2.17;;;;;;;;;;5062844;28;20040;-65
2022/08/21 12:54:31;;;;;;;6.95;1.75;;;;;;;;;;5065918;28;20064;-64
2022/08/21 12:57:00;;;;;;;11.52;2.35;;;;;;;;;;5062770;28;20074;-66
2022/08/21 12:59:27;;;;;;;6.90;1.80;;;;;;;;;;5071282;28;20079;-64
2022/08/21 13:01:56;;;;;;;9.50;2.25;;;;;;;;;;5057319;28;20094;-65
2022/08/21 13:04:28;;;;;;;5.93;2.00;;;;;;;;;;5061967;28;20483;-64
2022/08/21 13:06:57;;;;;;;6.40;1.80;;;;;;;;;;5061013;28;20057;-65
2022/08/21 13:09:27;;;;;;;3.92;1.70;;;;;;;;;;5066243;28;20044;-64
2022/08/21 13:11:54;;;;;;;7.13;1.95;;;;;;;;;;5069363;28;20071;-65
2022/08/21 13:14:25;;;;;;;5.70;1.80;;;;;;;;;;5067134;28;20041;-65
2022/08/21 13:16:55;;;;;;;5.38;2.10;;;;;;;;;;5063544;28;20558;-66
2022/08/21 13:19:23;;;;;;;7.00;2.60;;;;;;;;;;5068688;28;20101;-64
2022/08/21 13:21:52;;;;;;;4.78;1.80;;;;;;;;;;5062477;28;20040;-65
2022/08/21 13:24:21;;;;;;;5.82;1.90;;;;;;;;;;5065323;28;20060;-64
2022/08/21 13:26:49;;;;;;;8.90;2.00;;;;;;;;;;5057409;28;20102;-64
2022/08/21 13:29:17;;;;;;;6.25;2.00;;;;;;;;;;5065844;28;20506;-65
2022/08/21 13:31:48;;;;;;;5.63;2.03;;;;;;;;;;5063848;28;20139;-64
2022/08/21 13:34:16;;;;;;;9.02;2.10;;;;;;;;;;5057658;28;20053;-64
2022/08/21 13:36:44;;;;;;;7.47;2.28;;;;;;;;;;5060142;28;20045;-65
2022/08/21 13:39:14;;;;;;;7.35;2.30;;;;;;;;;;5065667;28;20102;-66
2022/08/21 13:41:43;;;;;;;4.63;1.88;;;;;;;;;;5060600;28;20115;-65
2022/08/21 13:44:16;;;;;;;7.15;2.33;;;;;;;;;;5065062;28;20052;-65
2022/08/21 13:46:44;;;;;;;5.15;2.15;;;;;;;;;;5062886;28;20491;-64
2022/08/21 13:49:12;;;;;;;6.72;2.10;;;;;;;;;;5061014;28;20063;-65
2022/08/21 13:51:39;;;;;;;4.15;2.08;;;;;;;;;;5061167;28;20083;-63
2022/08/21 13:54:16;;;;;;;6.78;2.30;;;;;;;;;;5065709;28;20056;-64
2022/08/21 13:56:45;;;;;;;5.45;2.30;;;;;;;;;;5062200;28;20474;-65
2022/08/21 13:59:13;;;;;;;7.70;2.38;;;;;;;;;;5061394;28;20434;-65
2022/08/21 14:01:49;;;;;;;5.68;2.03;;;;;;;;;;5063672;28;20102;-64
2022/08/21 14:04:19;;;;;;;5.43;2.20;;;;;;;;;;5062528;28;20036;-65
2022/08/21 14:06:46;;;;;;;7.00;2.17;;;;;;;;;;5060703;28;20052;-65
2022/08/21 14:09:15;;;;;;;7.45;2.40;;;;;;;;;;5061867;28;20048;-65
2022/08/21 14:11:43;;;;;;;10.60;2.47;;;;;;;;;;5060513;28;20071;-64
2022/08/21 14:14:22;;;;;;;7.30;2.20;;;;;;;;;;5061683;28;20055;-64
2022/08/21 14:16:55;;;;;;;9.35;2.50;;;;;;;;;;5058276;28;20048;-64
2022/08/21 14:19:24;;;;;;;8.10;2.70;;;;;;;;;;5063522;28;20047;-65
2022/08/21 14:21:51;;;;;;;6.93;2.30;;;;;;;;;;5064625;28;20052;-65
2022/08/21 14:24:27;;;;;;;6.80;2.58;;;;;;;;;;5059738;28;20162;-65
2022/08/21 14:26:58;;;;;;;6.47;1.92;;;;;;;;;;5058722;28;20048;-64
2022/08/21 14:29:27;;;;;;;10.52;2.58;;;;;;;;;;5063838;28;20122;-64
2022/08/21 14:31:56;;;;;;;9.20;2.47;;;;;;;;;;5056168;28;20551;-65
2022/08/21 14:34:23;;;;;;;8.40;2.25;;;;;;;;;;5062104;28;20056;-66
2022/08/21 14:36:51;;;;;;;7.05;2.40;;;;;;;;;;5063743;28;20643;-65
2022/08/21 14:39:18;;;;;;;10.35;2.63;;;;;;;;;;5061896;28;20051;-64
2022/08/21 14:41:48;;;;;;;6.63;2.35;;;;;;;;;;5065849;28;20052;-65
2022/08/21 14:44:17;;;;;;;10.57;2.95;;;;;;;;;;5065289;28;20076;-64
2022/08/21 14:46:44;;;;;;;8.25;2.63;;;;;;;;;;5067832;28;20083;-65